createdAt,value
2018-07-09T00:01:39.849Z,8.20
2018-07-09T00:04:09.008Z,8.80
2018-07-09T00:06:38.285Z,8.78
2018-07-09T00:09:07.582Z,8.93
2018-07-09T00:11:37.071Z,8.45
2018-07-09T00:14:06.093Z,9.63
2018-07-09T00:16:34.839Z,10.82
2018-07-09T00:19:04.008Z,10.82
2018-07-09T00:21:33.076Z,10.38
2018-07-09T00:24:02.063Z,10.90
2018-07-09T00:26:31.515Z,10.53
2018-07-09T00:29:00.531Z,10.25
2018-07-09T00:31:29.536Z,10.70
2018-07-09T00:33:58.677Z,11.08
2018-07-09T00:36:27.719Z,10.45
2018-07-09T00:38:57.119Z,10.90
2018-07-09T00:41:26.650Z,10.55
2018-07-09T00:43:55.591Z,14.00
2018-07-09T00:46:24.839Z,11.45
2018-07-09T00:48:53.968Z,12.78
2018-07-09T00:51:22.667Z,12.20
2018-07-09T00:53:51.686Z,12.45
2018-07-09T00:56:21.173Z,12.93
2018-07-09T00:58:50.250Z,12.70
2018-07-09T01:01:19.763Z,12.40
2018-07-09T01:03:49.302Z,13.03
2018-07-09T01:06:18.571Z,12.53
2018-07-09T01:08:47.487Z,13.60
2018-07-09T01:11:27.650Z,13.22
2018-07-09T01:13:56.730Z,13.15
2018-07-09T01:16:25.603Z,13.50
2018-07-09T01:18:55.045Z,13.22
2018-07-09T01:21:24.264Z,12.50
2018-07-09T01:23:53.325Z,13.30
2018-07-09T01:26:22.655Z,12.78
2018-07-09T01:28:52.014Z,12.53
2018-07-09T01:31:21.032Z,12.53
2018-07-09T01:33:50.350Z,11.68
2018-07-09T01:36:19.335Z,12.82
2018-07-09T01:38:48.325Z,12.20
2018-07-09T01:41:17.241Z,10.95
2018-07-09T01:43:46.316Z,10.68
2018-07-09T01:46:15.415Z,11.48
2018-07-09T01:48:44.719Z,11.60
2018-07-09T01:51:13.439Z,12.03
2018-07-09T01:53:42.996Z,11.48
2018-07-09T01:56:12.498Z,12.37
2018-07-09T01:58:41.154Z,13.28
2018-07-09T02:01:10.094Z,13.13
2018-07-09T02:03:39.304Z,15.43
2018-07-09T02:06:08.287Z,13.83
2018-07-09T02:08:37.404Z,13.58
2018-07-09T02:11:06.800Z,13.65
2018-07-09T02:13:36.403Z,13.65
2018-07-09T02:16:05.284Z,15.13
2018-07-09T02:18:34.694Z,16.70
2018-07-09T02:21:04.096Z,15.55
2018-07-09T02:23:32.980Z,16.20
2018-07-09T02:26:03.020Z,14.33
2018-07-09T02:28:32.156Z,14.93
2018-07-09T02:31:01.007Z,14.65
2018-07-09T02:33:30.412Z,14.47
2018-07-09T02:35:59.301Z,14.15
2018-07-09T02:38:28.003Z,14.87
2018-07-09T02:40:57.713Z,14.98
2018-07-09T02:43:26.464Z,14.50
2018-07-09T02:45:55.378Z,14.38
2018-07-09T02:48:24.420Z,14.53
2018-07-09T02:50:53.359Z,13.98
2018-07-09T02:53:22.824Z,18.52
2018-07-09T02:55:52.195Z,12.93
2018-07-09T02:58:21.286Z,14.25
2018-07-09T03:00:50.573Z,13.28
2018-07-09T03:03:19.444Z,13.30
2018-07-09T03:05:48.239Z,14.13
2018-07-09T03:08:17.045Z,18.07
2018-07-09T03:10:46.857Z,13.18
2018-07-09T03:13:15.935Z,13.95
2018-07-09T03:15:44.920Z,14.13
2018-07-09T03:18:14.077Z,19.90
2018-07-09T03:20:43.321Z,13.95
2018-07-09T03:23:12.427Z,13.38
2018-07-09T03:25:41.539Z,12.80
2018-07-09T03:28:11.045Z,12.03
2018-07-09T03:30:39.934Z,13.10
2018-07-09T03:33:09.165Z,13.43
2018-07-09T03:35:37.989Z,14.73
2018-07-09T03:38:07.022Z,18.95
2018-07-09T03:40:36.239Z,15.23
2018-07-09T03:43:04.978Z,15.38
2018-07-09T03:45:34.010Z,15.65
2018-07-09T03:48:03.409Z,16.35
2018-07-09T03:50:32.302Z,15.40
2018-07-09T03:53:05.027Z,14.95
2018-07-09T03:55:36.422Z,14.03
2018-07-09T03:58:05.852Z,16.97
2018-07-09T04:00:35.161Z,15.63
2018-07-09T04:03:04.178Z,19.20
2018-07-09T04:05:33.366Z,22.58
2018-07-09T04:08:02.614Z,37.53
2018-07-09T04:10:31.810Z,44.15
2018-07-09T04:13:02.937Z,41.40
2018-07-09T04:15:31.994Z,43.17
2018-07-09T04:18:01.175Z,42.33
2018-07-09T04:20:30.490Z,32.00
2018-07-09T04:22:59.269Z,27.77
2018-07-09T04:25:28.373Z,18.98
2018-07-09T04:27:57.712Z,15.93
2018-07-09T04:30:26.663Z,14.58
2018-07-09T04:32:55.994Z,14.80
2018-07-09T04:35:25.389Z,12.82
2018-07-09T04:37:54.718Z,13.95
2018-07-09T04:40:24.879Z,13.20
2018-07-09T04:42:55.870Z,12.47
2018-07-09T04:45:25.249Z,14.47
2018-07-09T04:47:54.535Z,13.62
2018-07-09T04:50:24.499Z,15.03
2018-07-09T04:52:53.475Z,13.22
2018-07-09T04:55:22.319Z,12.28
2018-07-09T04:57:51.659Z,14.80
2018-07-09T05:00:20.722Z,12.37
2018-07-09T05:02:49.672Z,11.83
2018-07-09T05:05:19.043Z,16.23
2018-07-09T05:07:47.889Z,12.98
2018-07-09T05:10:17.006Z,13.60
2018-07-09T05:12:46.481Z,18.82
2018-07-09T05:15:15.504Z,12.30
2018-07-09T05:17:44.411Z,12.75
2018-07-09T05:20:13.602Z,12.58
2018-07-09T05:22:42.604Z,11.43
2018-07-09T05:25:11.574Z,12.53
2018-07-09T05:27:41.010Z,11.85
2018-07-09T05:30:11.543Z,12.18
2018-07-09T05:32:41.773Z,13.72
2018-07-09T05:35:10.850Z,12.47
2018-07-09T05:37:40.019Z,12.80
2018-07-09T05:40:09.465Z,16.85
2018-07-09T05:42:39.126Z,11.43
2018-07-09T05:45:08.202Z,12.15
2018-07-09T05:47:37.721Z,11.35
2018-07-09T05:50:07.336Z,12.07
2018-07-09T05:52:36.575Z,10.98
2018-07-09T05:55:05.715Z,11.22
2018-07-09T05:57:35.543Z,10.25
2018-07-09T06:00:04.515Z,16.65
2018-07-09T06:02:34.141Z,12.28
2018-07-09T06:05:04.414Z,11.45
2018-07-09T06:07:33.359Z,9.38
2018-07-09T06:10:03.203Z,12.18
2018-07-09T06:12:32.109Z,9.43
2018-07-09T06:15:01.038Z,11.53
2018-07-09T06:17:30.898Z,9.58
2018-07-09T06:20:00.657Z,11.18
2018-07-09T06:22:29.610Z,11.40
2018-07-09T06:24:58.859Z,9.25
2018-07-09T06:27:27.861Z,9.53
2018-07-09T06:29:56.717Z,8.13
2018-07-09T06:32:26.117Z,13.15
2018-07-09T06:34:55.099Z,9.65
2018-07-09T06:37:24.031Z,12.85
2018-07-09T06:39:53.127Z,11.00
2018-07-09T06:42:22.114Z,10.05
2018-07-09T06:44:51.287Z,10.75
2018-07-09T06:47:20.424Z,9.60
2018-07-09T06:49:49.695Z,10.78
2018-07-09T06:52:18.479Z,10.68
2018-07-09T06:54:47.555Z,9.48
2018-07-09T06:57:16.398Z,7.80
2018-07-09T06:59:45.550Z,8.78
2018-07-09T07:02:15.018Z,7.15
2018-07-09T07:04:44.273Z,6.95
2018-07-09T07:07:13.218Z,6.25
2018-07-09T07:09:42.070Z,5.05
2018-07-09T07:12:11.128Z,9.08
2018-07-09T07:14:40.146Z,5.80
2018-07-09T07:17:08.865Z,7.25
2018-07-09T07:19:37.823Z,5.05
2018-07-09T07:22:07.841Z,5.50
2018-07-09T07:24:36.932Z,4.62
2018-07-09T07:27:05.939Z,4.67
2018-07-09T07:29:34.823Z,3.75
2018-07-09T07:32:03.666Z,4.17
2018-07-09T07:34:32.624Z,6.15
2018-07-09T07:37:02.141Z,7.47
2018-07-09T07:39:31.143Z,7.53
2018-07-09T07:41:59.986Z,6.65
2018-07-09T07:44:28.821Z,5.33
2018-07-09T07:46:58.378Z,6.03
2018-07-09T07:49:27.814Z,4.92
2018-07-09T07:51:57.004Z,4.45
2018-07-09T07:54:26.614Z,4.70
2018-07-09T07:56:55.479Z,5.87
2018-07-09T07:59:24.363Z,5.53
2018-07-09T08:01:53.510Z,5.92
2018-07-09T08:04:22.480Z,4.45
2018-07-09T08:06:51.495Z,5.28
2018-07-09T08:09:21.732Z,4.00
2018-07-09T08:11:50.711Z,4.35
2018-07-09T08:14:21.216Z,4.40
2018-07-09T08:16:50.711Z,4.72
2018-07-09T08:19:19.833Z,5.53
2018-07-09T08:21:49.058Z,5.12
2018-07-09T08:24:17.857Z,4.75
2018-07-09T08:26:48.586Z,4.22
2018-07-09T08:29:17.610Z,4.15
2018-07-09T08:31:48.860Z,3.65
2018-07-09T08:34:17.573Z,3.72
2018-07-09T08:36:46.532Z,2.90
2018-07-09T08:39:15.690Z,3.62
2018-07-09T08:41:44.908Z,4.53
2018-07-09T08:44:14.036Z,13.05
2018-07-09T08:46:43.530Z,4.35
2018-07-09T08:49:13.360Z,7.72
2018-07-09T08:51:43.330Z,3.65
2018-07-09T08:54:12.775Z,3.45
2018-07-09T08:56:41.563Z,3.72
2018-07-09T08:59:10.882Z,4.28
2018-07-09T09:01:40.686Z,3.65
2018-07-09T09:04:09.491Z,3.85
2018-07-09T09:06:39.379Z,3.90
2018-07-09T09:09:08.905Z,3.83
2018-07-09T09:11:37.725Z,3.47
2018-07-09T09:14:07.118Z,4.62
2018-07-09T09:16:37.101Z,3.92
2018-07-09T09:19:06.013Z,4.95
2018-07-09T09:21:35.516Z,6.62
2018-07-09T09:24:04.778Z,5.90
2018-07-09T09:26:33.605Z,5.75
2018-07-09T09:29:02.451Z,5.15
2018-07-09T09:31:32.285Z,3.75
2018-07-09T09:34:01.192Z,5.20
2018-07-09T09:36:30.088Z,4.28
2018-07-09T09:38:59.511Z,5.08
2018-07-09T09:41:28.591Z,5.97
2018-07-09T09:43:57.692Z,5.15
2018-07-09T09:46:26.717Z,5.15
2018-07-09T09:51:37.049Z,7.75
2018-07-09T09:54:06.572Z,6.67
2018-07-09T09:56:35.688Z,6.53
2018-07-09T09:59:04.882Z,10.90
2018-07-09T10:01:34.600Z,5.33
2018-07-09T10:04:03.337Z,5.37
2018-07-09T10:06:32.602Z,5.72
2018-07-09T10:09:02.131Z,6.03
2018-07-09T10:11:30.956Z,4.95
2018-07-09T10:14:00.269Z,5.15
2018-07-09T10:16:29.723Z,4.92
2018-07-09T10:18:58.626Z,4.55
2018-07-09T10:21:27.439Z,5.08
2018-07-09T10:23:57.179Z,4.33
2018-07-09T10:26:26.250Z,4.75
2018-07-09T10:28:55.561Z,5.50
2018-07-09T10:31:24.349Z,3.70
2018-07-09T10:33:53.352Z,4.17
2018-07-09T10:36:22.434Z,5.70
2018-07-09T10:38:51.771Z,4.60
2018-07-09T10:41:20.839Z,3.83
2018-07-09T10:43:50.019Z,4.03
2018-07-09T10:46:19.290Z,4.30
2018-07-09T10:48:48.208Z,6.87
2018-07-09T10:51:17.211Z,4.30
2018-07-09T10:53:46.827Z,4.72
2018-07-09T10:56:15.918Z,3.25
2018-07-09T10:58:44.890Z,2.77
2018-07-09T11:01:14.254Z,4.80
2018-07-09T11:03:43.514Z,6.72
2018-07-09T11:06:12.508Z,4.30
2018-07-09T11:08:41.690Z,4.33
2018-07-09T11:11:10.507Z,7.00
2018-07-09T11:13:39.883Z,4.58
2018-07-09T11:16:09.089Z,4.28
2018-07-09T11:18:38.099Z,4.37
2018-07-09T11:21:07.193Z,4.83
2018-07-09T11:23:36.507Z,5.15
2018-07-09T11:26:05.525Z,9.38
2018-07-09T11:28:34.382Z,3.25
2018-07-09T11:31:03.903Z,4.12
2018-07-09T11:33:32.988Z,3.83
2018-07-09T11:36:02.658Z,5.20
2018-07-09T11:38:32.106Z,4.70
2018-07-09T11:41:01.200Z,4.10
2018-07-09T11:43:30.192Z,6.53
2018-07-09T11:45:59.303Z,5.80
2018-07-09T11:48:28.564Z,4.67
2018-07-09T11:50:57.595Z,5.37
2018-07-09T11:53:27.019Z,6.62
2018-07-09T11:55:56.070Z,5.03
2018-07-09T11:58:25.242Z,4.85
2018-07-09T12:00:54.106Z,5.28
2018-07-09T12:03:22.829Z,5.65
2018-07-09T12:05:51.636Z,6.00
2018-07-09T12:08:20.474Z,7.03
2018-07-09T12:10:49.445Z,6.08
2018-07-09T12:13:18.719Z,5.50
2018-07-09T12:15:47.989Z,4.97
2018-07-09T12:18:17.216Z,6.55
2018-07-09T12:20:46.953Z,8.00
2018-07-09T12:23:16.451Z,6.42
2018-07-09T12:25:45.200Z,5.58
2018-07-09T12:28:14.022Z,8.43
2018-07-09T12:30:43.453Z,6.17
2018-07-09T12:33:12.541Z,6.20
2018-07-09T12:35:41.674Z,6.30
2018-07-09T12:38:10.919Z,7.40
2018-07-09T12:40:39.817Z,5.42
2018-07-09T12:43:09.200Z,6.10
2018-07-09T12:45:38.660Z,6.78
2018-07-09T12:48:07.817Z,5.45
2018-07-09T12:50:36.818Z,4.35
2018-07-09T12:53:06.068Z,3.92
2018-07-09T12:55:34.991Z,7.75
2018-07-09T12:58:04.011Z,8.33
2018-07-09T13:00:33.379Z,9.95
2018-07-09T13:03:02.430Z,9.70
2018-07-09T13:05:31.718Z,3.40
2018-07-09T13:08:00.715Z,3.92
2018-07-09T13:10:30.511Z,5.05
2018-07-09T13:12:59.611Z,4.75
2018-07-09T13:15:29.110Z,4.70
2018-07-09T13:17:58.191Z,4.97
2018-07-09T13:20:27.259Z,5.37
2018-07-09T13:22:56.630Z,5.22
2018-07-09T13:25:26.392Z,5.37
2018-07-09T13:27:55.337Z,4.90
2018-07-09T13:30:24.976Z,4.58
2018-07-09T13:32:54.406Z,4.80
2018-07-09T13:35:23.916Z,8.13
2018-07-09T13:37:52.988Z,5.67
2018-07-09T13:40:22.147Z,4.25
2018-07-09T13:42:51.240Z,7.58
2018-07-09T13:45:20.561Z,4.33
2018-07-09T13:47:49.428Z,4.00
2018-07-09T13:50:18.800Z,4.35
2018-07-09T13:52:48.238Z,7.50
2018-07-09T13:55:17.236Z,9.20
2018-07-09T13:57:46.743Z,4.70
2018-07-09T14:00:15.945Z,4.47
2018-07-09T14:02:45.045Z,5.90
2018-07-09T14:05:13.825Z,10.20
2018-07-09T14:07:42.738Z,5.33
2018-07-09T14:10:11.728Z,8.10
2018-07-09T14:12:40.830Z,5.53
2018-07-09T14:15:10.115Z,6.00
2018-07-09T14:17:39.292Z,8.15
2018-07-09T14:20:36.850Z,7.17
2018-07-09T14:23:06.716Z,5.17
2018-07-09T14:25:35.894Z,11.95
2018-07-09T14:28:06.065Z,9.18
2018-07-09T14:30:35.431Z,12.95
2018-07-09T14:33:04.911Z,6.08
2018-07-09T14:35:34.421Z,6.20
2018-07-09T14:38:03.528Z,6.00
2018-07-09T14:40:32.417Z,7.10
2018-07-09T14:43:02.122Z,8.35
2018-07-09T14:45:31.299Z,6.10
2018-07-09T14:48:00.093Z,8.30
2018-07-09T14:50:29.611Z,6.45
2018-07-09T14:52:58.627Z,10.25
2018-07-09T14:55:27.819Z,8.30
2018-07-09T14:57:57.387Z,7.42
2018-07-09T15:00:26.530Z,7.40
2018-07-09T15:02:56.107Z,6.65
2018-07-09T15:05:26.336Z,8.33
2018-07-09T15:07:55.345Z,8.75
2018-07-09T15:10:24.423Z,8.20
2018-07-09T15:12:53.856Z,9.20
2018-07-09T15:15:23.650Z,11.12
2018-07-09T15:17:52.472Z,8.83
2018-07-09T15:20:21.635Z,10.28
2018-07-09T15:22:51.151Z,9.53
2018-07-09T15:25:20.257Z,16.23
2018-07-09T15:27:49.291Z,9.63
2018-07-09T15:30:17.987Z,10.00
2018-07-09T15:32:46.807Z,12.03
2018-07-09T15:35:16.163Z,9.25
2018-07-09T15:37:45.302Z,10.03
2018-07-09T15:40:15.051Z,10.28
2018-07-09T15:42:44.469Z,14.25
2018-07-09T15:45:13.679Z,7.90
2018-07-09T15:47:42.539Z,8.78
2018-07-09T15:50:11.435Z,10.40
2018-07-09T15:52:40.327Z,10.20
2018-07-09T15:55:09.395Z,17.42
2018-07-09T15:57:38.724Z,9.28
2018-07-09T16:00:07.909Z,8.50
2018-07-09T16:02:37.002Z,11.88
2018-07-09T16:05:06.763Z,9.68
2018-07-09T16:07:35.943Z,17.23
2018-07-09T16:10:04.923Z,9.90
2018-07-09T16:12:34.070Z,10.95
2018-07-09T16:15:03.280Z,10.23
2018-07-09T16:17:32.431Z,8.63
2018-07-09T16:20:01.722Z,14.43
2018-07-09T16:22:31.112Z,9.90
2018-07-09T16:25:00.126Z,11.33
2018-07-09T16:27:29.367Z,12.73
2018-07-09T16:29:58.260Z,15.88
2018-07-09T16:32:27.103Z,11.83
2018-07-09T16:34:56.197Z,11.12
2018-07-09T16:37:25.396Z,10.35
2018-07-09T16:39:54.387Z,9.50
2018-07-09T16:42:24.565Z,10.23
2018-07-09T16:44:54.040Z,11.90
2018-07-09T16:47:23.106Z,10.43
2018-07-09T16:49:52.182Z,9.88
2018-07-09T16:52:21.222Z,16.80
2018-07-09T16:54:50.101Z,10.20
2018-07-09T16:57:19.199Z,9.68
2018-07-09T16:59:48.083Z,9.03
2018-07-09T17:02:17.570Z,9.90
2018-07-09T17:04:46.947Z,12.45
2018-07-09T17:07:15.893Z,9.88
2018-07-09T17:09:44.786Z,10.48
2018-07-09T17:12:14.105Z,18.92
2018-07-09T17:14:43.071Z,10.68
2018-07-09T17:17:12.079Z,15.95
2018-07-09T17:19:41.312Z,11.60
2018-07-09T17:22:10.778Z,11.20
2018-07-09T17:24:39.664Z,10.03
2018-07-09T17:27:08.899Z,16.00
2018-07-09T17:29:37.767Z,10.10
2018-07-09T17:32:08.146Z,11.28
2018-07-09T17:34:37.291Z,11.78
2018-07-09T17:37:06.149Z,11.15
2018-07-09T17:39:34.979Z,11.97
2018-07-09T17:42:04.317Z,11.35
2018-07-09T17:44:33.582Z,11.03
2018-07-09T17:47:02.543Z,10.70
2018-07-09T17:49:31.911Z,11.35
2018-07-09T17:52:00.964Z,11.00
2018-07-09T17:54:29.819Z,10.82
2018-07-09T17:56:59.164Z,11.97
2018-07-09T17:59:28.539Z,9.93
2018-07-09T18:01:57.369Z,9.23
2018-07-09T18:04:26.549Z,8.85
2018-07-09T18:06:55.556Z,9.08
2018-07-09T18:09:28.692Z,9.55
2018-07-09T18:12:03.468Z,8.38
2018-07-09T18:14:36.612Z,9.00
2018-07-09T18:17:05.599Z,8.88
2018-07-09T18:19:34.757Z,7.83
2018-07-09T18:22:04.127Z,6.67
2018-07-09T18:24:33.103Z,7.03
2018-07-09T18:27:01.798Z,6.00
2018-07-09T18:29:31.040Z,6.17
2018-07-09T18:31:59.910Z,5.92
2018-07-09T18:34:28.951Z,5.85
2018-07-09T18:36:58.303Z,5.83
2018-07-09T18:39:27.182Z,4.97
2018-07-09T18:41:56.256Z,5.45
2018-07-09T18:44:25.419Z,5.60
2018-07-09T18:46:54.415Z,6.08
2018-07-09T18:49:23.175Z,6.62
2018-07-09T18:51:52.495Z,6.65
2018-07-09T18:54:21.375Z,8.18
2018-07-09T18:56:50.140Z,8.38
2018-07-09T18:59:19.642Z,8.03
2018-07-09T19:01:48.870Z,8.00
2018-07-09T19:04:18.035Z,8.20
2018-07-09T19:07:06.175Z,8.13
2018-07-09T19:09:35.575Z,8.55
2018-07-09T19:12:05.645Z,9.50
2018-07-09T19:14:40.280Z,10.15
2018-07-09T19:18:20.028Z,13.62
2018-07-09T19:21:28.490Z,14.73
2018-07-09T19:23:56.358Z,16.57
2018-07-09T19:26:23.874Z,17.57
2018-07-09T19:28:51.854Z,18.87
2018-07-09T19:31:19.385Z,15.75
2018-07-09T19:33:47.053Z,13.50
2018-07-09T19:36:14.731Z,12.47
2018-07-09T19:38:42.097Z,14.40
2018-07-09T19:41:10.029Z,16.00
2018-07-09T19:43:38.372Z,18.25
2018-07-09T19:46:05.986Z,18.15
2018-07-09T19:48:33.259Z,24.43
2018-07-09T19:51:01.108Z,22.17
2018-07-09T19:53:28.575Z,19.95
2018-07-09T19:55:56.532Z,20.82
2018-07-09T19:58:24.038Z,26.23
2018-07-09T20:00:51.360Z,21.60
2018-07-09T20:03:18.973Z,22.05
2018-07-09T20:05:46.690Z,15.48
2018-07-09T20:08:14.012Z,11.43
2018-07-09T20:10:46.599Z,12.75
2018-07-09T20:13:19.510Z,15.38
2018-07-09T20:15:52.032Z,10.88
2018-07-09T20:18:19.377Z,12.05
2018-07-09T20:20:47.322Z,14.35
2018-07-09T20:23:14.672Z,10.93
2018-07-09T20:25:42.005Z,11.93
2018-07-09T20:28:09.773Z,12.35
2018-07-09T20:30:37.162Z,13.13
2018-07-09T20:33:04.507Z,13.85
2018-07-09T20:35:32.171Z,15.63
2018-07-09T20:37:59.512Z,16.32
2018-07-09T20:40:27.069Z,18.10
2018-07-09T20:42:54.963Z,18.42
2018-07-09T20:45:22.503Z,17.80
2018-07-09T20:47:49.957Z,14.80
2018-07-09T20:50:17.459Z,14.60
2018-07-09T20:52:44.798Z,18.48
2018-07-09T20:55:12.158Z,14.23
2018-07-09T20:57:40.119Z,13.08
2018-07-09T21:00:07.453Z,15.10
2018-07-09T21:02:34.787Z,16.37
2018-07-09T21:05:02.314Z,17.00
2018-07-09T21:07:29.920Z,19.05
2018-07-09T21:09:57.253Z,19.40
2018-07-09T21:12:24.990Z,18.05
2018-07-09T21:14:52.522Z,21.90
2018-07-09T21:17:19.978Z,19.45
2018-07-09T21:19:47.342Z,17.12
2018-07-09T21:22:14.763Z,14.80
2018-07-09T21:24:42.244Z,15.60
2018-07-09T21:27:09.929Z,16.65
2018-07-09T21:29:37.266Z,12.65
2018-07-09T21:32:04.620Z,12.78
2018-07-09T21:34:32.400Z,13.40
2018-07-09T21:36:59.740Z,12.85
2018-07-09T21:39:27.070Z,9.88
2018-07-09T21:41:54.421Z,10.30
2018-07-09T21:44:21.912Z,11.70
2018-07-09T21:46:49.250Z,11.38
2018-07-09T21:49:16.958Z,12.50
2018-07-09T21:51:44.495Z,13.88
2018-07-09T21:54:11.827Z,15.38
2018-07-09T21:56:39.524Z,19.25
2018-07-09T21:59:06.970Z,17.07
2018-07-09T22:01:34.280Z,16.10
2018-07-09T22:04:02.206Z,16.35
2018-07-09T22:06:29.539Z,16.45
2018-07-09T22:08:56.894Z,15.72
2018-07-09T22:11:24.267Z,15.05
2018-07-09T22:13:51.718Z,13.35
2018-07-09T22:16:19.118Z,16.25
2018-07-09T22:18:46.948Z,14.78
2018-07-09T22:21:14.405Z,14.20
2018-07-09T22:23:41.751Z,15.65
2018-07-09T22:26:09.639Z,17.45
2018-07-09T22:28:37.094Z,15.78
2018-07-09T22:31:06.198Z,17.40
2018-07-09T22:33:35.235Z,14.75
2018-07-09T22:36:04.065Z,14.40
2018-07-09T22:38:33.254Z,16.10
2018-07-09T22:41:02.490Z,15.13
2018-07-09T22:43:42.215Z,13.75
2018-07-09T22:46:11.740Z,14.35
2018-07-09T22:48:40.599Z,13.75
2018-07-09T22:51:09.584Z,16.85
2018-07-09T22:53:38.609Z,15.68
2018-07-09T22:56:10.195Z,12.07
2018-07-09T22:58:41.010Z,9.73
2018-07-09T23:01:10.804Z,11.08
2018-07-09T23:03:39.806Z,10.45
2018-07-09T23:06:09.525Z,10.75
2018-07-09T23:08:38.599Z,9.83
2018-07-09T23:13:24.426Z,7.70
2018-07-09T23:17:01.621Z,8.15
2018-07-09T23:22:24.682Z,9.43
2018-07-09T23:24:52.019Z,9.13
2018-07-09T23:27:19.500Z,9.03
2018-07-09T23:29:47.391Z,9.20
2018-07-09T23:32:14.931Z,8.28
2018-07-09T23:34:42.355Z,8.38
2018-07-09T23:37:10.306Z,7.00
2018-07-09T23:39:37.654Z,6.08
2018-07-09T23:42:05.087Z,6.62
2018-07-09T23:44:32.552Z,5.10
2018-07-09T23:46:59.883Z,3.80
2018-07-09T23:49:27.206Z,3.83
2018-07-09T23:51:54.932Z,4.37
2018-07-09T23:54:22.254Z,4.22
2018-07-09T23:56:58.031Z,5.72
2018-07-09T23:59:37.865Z,4.12
